createdAt,value
2018-10-17T00:00:13.322Z,13.50
2018-10-17T00:02:42.974Z,13.50
2018-10-17T00:05:12.096Z,13.50
2018-10-17T00:07:41.444Z,13.50
2018-10-17T00:10:12.060Z,13.50
2018-10-17T00:12:41.694Z,13.50
2018-10-17T00:15:10.900Z,13.40
2018-10-17T00:17:40.016Z,13.40
2018-10-17T00:20:11.320Z,13.40
2018-10-17T00:22:40.558Z,13.40
2018-10-17T00:25:10.069Z,13.40
2018-10-17T00:27:40.045Z,13.30
2018-10-17T00:30:11.195Z,13.30
2018-10-17T00:32:40.358Z,13.30
2018-10-17T00:35:10.159Z,13.30
2018-10-17T00:37:42.274Z,13.30
2018-10-17T00:40:11.484Z,13.30
2018-10-17T00:42:40.563Z,13.30
2018-10-17T00:45:09.808Z,13.40
2018-10-17T00:47:39.121Z,13.50
2018-10-17T00:50:15.331Z,13.60
2018-10-17T00:52:44.590Z,13.60
2018-10-17T00:55:13.784Z,13.50
2018-10-17T00:57:42.880Z,13.50
2018-10-17T01:00:12.089Z,13.50
2018-10-17T01:02:41.339Z,13.50
2018-10-17T01:05:10.786Z,13.50
2018-10-17T01:07:39.908Z,13.40
2018-10-17T01:10:08.964Z,13.40
2018-10-17T01:12:38.134Z,13.40
2018-10-17T01:15:07.346Z,13.40
2018-10-17T01:17:36.687Z,13.40
2018-10-17T01:20:07.048Z,13.40
2018-10-17T01:22:36.232Z,13.40
2018-10-17T01:25:05.494Z,13.40
2018-10-17T01:27:34.588Z,13.40
2018-10-17T01:30:03.783Z,13.40
2018-10-17T01:32:32.944Z,13.40
2018-10-17T01:35:02.147Z,13.40
2018-10-17T01:37:31.316Z,13.40
2018-10-17T01:40:00.451Z,13.30
2018-10-17T01:42:29.875Z,13.30
2018-10-17T01:44:59.104Z,13.20
2018-10-17T01:47:28.143Z,13.20
2018-10-17T01:49:57.207Z,13.20
2018-10-17T01:52:26.411Z,13.20
2018-10-17T01:54:55.544Z,13.20
2018-10-17T01:57:24.626Z,13.10
2018-10-17T01:59:53.800Z,13.10
2018-10-17T02:02:22.887Z,13.10
2018-10-17T02:04:52.106Z,13.10
2018-10-17T02:07:21.217Z,13.10
2018-10-17T02:09:50.442Z,13.00
2018-10-17T02:12:19.656Z,13.00
2018-10-17T02:14:48.761Z,12.90
2018-10-17T02:17:18.220Z,12.90
2018-10-17T02:19:47.398Z,12.80
2018-10-17T02:22:16.475Z,12.80
2018-10-17T02:24:45.523Z,12.80
2018-10-17T02:27:14.748Z,12.70
2018-10-17T02:29:43.880Z,12.70
2018-10-17T02:32:13.178Z,12.60
2018-10-17T02:34:47.509Z,12.60
2018-10-17T02:37:16.724Z,12.50
2018-10-17T02:39:45.876Z,12.50
2018-10-17T02:42:19.721Z,12.40
2018-10-17T02:44:48.780Z,12.40
2018-10-17T02:47:18.191Z,12.40
2018-10-17T02:49:47.442Z,12.40
2018-10-17T02:52:16.550Z,12.30
2018-10-17T02:54:45.668Z,12.30
2018-10-17T02:57:14.773Z,12.30
2018-10-17T02:59:43.750Z,12.40
2018-10-17T03:02:13.492Z,12.40
2018-10-17T03:04:42.636Z,12.40
2018-10-17T03:07:11.924Z,12.40
2018-10-17T03:09:41.009Z,12.50
2018-10-17T03:12:10.122Z,12.50
2018-10-17T03:14:39.127Z,12.60
2018-10-17T03:17:08.403Z,12.60
2018-10-17T03:19:37.641Z,12.70
2018-10-17T03:22:08.179Z,12.70
2018-10-17T03:24:37.534Z,12.70
2018-10-17T03:27:06.755Z,12.70
2018-10-17T03:29:35.969Z,12.60
2018-10-17T03:32:05.268Z,12.60
2018-10-17T03:34:34.364Z,12.70
2018-10-17T03:37:03.682Z,12.60
2018-10-17T03:39:33.162Z,12.70
2018-10-17T03:42:02.485Z,12.60
2018-10-17T03:44:31.581Z,12.60
2018-10-17T03:47:00.711Z,12.60
2018-10-17T03:52:12.316Z,12.50
2018-10-17T03:54:41.589Z,12.50
2018-10-17T03:57:10.711Z,12.50
2018-10-17T03:59:40.985Z,12.50
2018-10-17T04:02:10.150Z,12.50
2018-10-17T04:04:39.363Z,12.60
2018-10-17T04:07:09.866Z,12.60
2018-10-17T04:09:38.935Z,12.60
2018-10-17T04:12:08.144Z,12.60
2018-10-17T04:14:37.319Z,12.60
2018-10-17T04:17:06.665Z,12.50
2018-10-17T04:19:35.823Z,12.60
2018-10-17T04:26:22.651Z,12.50
2018-10-17T04:28:51.868Z,12.40
2018-10-17T04:31:20.951Z,12.40
2018-10-17T04:33:50.223Z,12.40
2018-10-17T04:36:19.410Z,12.40
2018-10-17T04:38:48.528Z,12.40
2018-10-17T04:41:17.796Z,12.40
2018-10-17T04:43:47.155Z,12.30
2018-10-17T04:46:16.266Z,12.30
2018-10-17T04:48:45.338Z,12.20
2018-10-17T04:51:14.591Z,12.20
2018-10-17T04:53:43.900Z,12.20
2018-10-17T04:56:13.056Z,12.10
2018-10-17T04:58:42.211Z,12.20
2018-10-17T05:01:11.548Z,12.10
2018-10-17T05:03:40.679Z,12.20
2018-10-17T05:06:09.956Z,12.20
2018-10-17T05:08:38.984Z,12.30
2018-10-17T05:11:08.171Z,12.30
2018-10-17T05:13:37.263Z,12.40
2018-10-17T05:16:06.476Z,12.50
2018-10-17T05:18:35.742Z,12.50
2018-10-17T05:21:05.261Z,12.50
2018-10-17T05:23:34.473Z,12.50
2018-10-17T05:26:04.218Z,12.50
2018-10-17T05:28:33.395Z,12.40
2018-10-17T05:31:02.568Z,12.40
2018-10-17T05:33:32.062Z,12.40
2018-10-17T05:36:01.651Z,12.40
2018-10-17T05:38:31.436Z,12.50
2018-10-17T05:41:00.729Z,12.50
2018-10-17T05:43:30.467Z,12.50
2018-10-17T05:45:59.627Z,12.40
2018-10-17T05:48:28.804Z,12.50
2018-10-17T05:50:58.050Z,12.50
2018-10-17T05:53:28.175Z,12.40
2018-10-17T05:55:57.614Z,12.40
2018-10-17T05:58:27.020Z,12.40
2018-10-17T06:00:56.439Z,12.50
2018-10-17T06:03:25.559Z,12.50
2018-10-17T06:05:54.951Z,12.40
2018-10-17T06:08:24.301Z,12.50
2018-10-17T06:10:53.949Z,12.50
2018-10-17T06:13:23.425Z,12.50
2018-10-17T06:15:54.801Z,12.50
2018-10-17T06:18:24.072Z,12.60
2018-10-17T06:20:53.182Z,12.60
2018-10-17T06:23:22.490Z,12.70
2018-10-17T06:25:51.831Z,12.70
2018-10-17T06:28:21.278Z,12.80
2018-10-17T06:30:50.514Z,12.80
2018-10-17T06:33:20.399Z,12.90
2018-10-17T06:35:50.361Z,13.00
2018-10-17T06:38:19.599Z,13.10
2018-10-17T06:40:50.327Z,13.10
2018-10-17T06:43:19.827Z,13.20
2018-10-17T06:45:49.350Z,13.30
2018-10-17T06:48:18.648Z,13.40
2018-10-17T06:50:48.221Z,13.40
2018-10-17T06:53:17.929Z,13.50
2018-10-17T06:55:47.105Z,13.60
2018-10-17T06:58:16.513Z,13.70
2018-10-17T07:00:46.662Z,13.80
2018-10-17T07:03:17.127Z,13.90
2018-10-17T07:05:47.018Z,13.90
2018-10-17T07:08:16.254Z,14.10
2018-10-17T07:10:45.674Z,14.20
2018-10-17T07:13:15.533Z,14.40
2018-10-17T07:15:44.819Z,14.50
2018-10-17T07:18:13.995Z,14.60
2018-10-17T07:20:44.644Z,14.80
2018-10-17T07:23:14.689Z,14.90
2018-10-17T07:25:43.919Z,15.00
2018-10-17T07:28:14.249Z,15.20
2018-10-17T07:30:43.339Z,15.30
2018-10-17T07:33:12.664Z,15.40
2018-10-17T07:35:45.852Z,15.50
2018-10-17T07:38:16.016Z,15.70
2018-10-17T07:40:45.156Z,15.90
2018-10-17T07:43:16.168Z,16.10
2018-10-17T07:45:45.509Z,16.20
2018-10-17T07:48:15.115Z,16.30
2018-10-17T07:50:44.280Z,16.40
2018-10-17T07:53:13.646Z,16.60
2018-10-17T07:55:42.908Z,16.70
2018-10-17T07:58:12.203Z,16.80
2018-10-17T08:00:41.241Z,16.90
2018-10-17T08:03:10.512Z,17.00
2018-10-17T08:05:39.758Z,17.00
2018-10-17T08:08:08.956Z,17.00
2018-10-17T08:10:38.112Z,17.10
2018-10-17T08:13:07.256Z,17.30
2018-10-17T08:15:36.474Z,17.30
2018-10-17T08:18:05.871Z,17.40
2018-10-17T08:20:36.745Z,17.50
2018-10-17T08:23:06.476Z,17.50
2018-10-17T08:25:35.579Z,17.60
2018-10-17T08:28:06.250Z,17.60
2018-10-17T08:30:35.447Z,17.50
2018-10-17T08:33:04.788Z,17.50
2018-10-17T08:35:34.186Z,17.40
2018-10-17T08:38:03.426Z,17.30
2018-10-17T08:40:32.606Z,17.30
2018-10-17T08:43:02.121Z,17.20
2018-10-17T08:45:32.067Z,17.10
2018-10-17T08:48:01.356Z,17.00
2018-10-17T08:50:30.772Z,17.00
2018-10-17T08:52:59.910Z,17.00
2018-10-17T08:55:29.459Z,16.90
2018-10-17T08:57:59.391Z,16.80
2018-10-17T09:00:28.764Z,16.80
2018-10-17T09:02:57.999Z,16.80
2018-10-17T09:05:27.380Z,16.80
2018-10-17T09:07:56.557Z,16.80
2018-10-17T09:10:26.255Z,16.70
2018-10-17T09:12:56.643Z,16.80
2018-10-17T09:15:26.026Z,16.80
2018-10-17T09:17:55.185Z,16.80
2018-10-17T09:20:24.859Z,16.80
2018-10-17T09:22:54.112Z,16.80
2018-10-17T09:25:23.233Z,16.90
2018-10-17T09:27:52.564Z,16.90
2018-10-17T09:30:23.048Z,17.00
2018-10-17T09:32:52.177Z,17.00
2018-10-17T09:35:22.307Z,17.00
2018-10-17T09:37:51.765Z,17.10
2018-10-17T09:40:21.204Z,17.10
2018-10-17T09:42:50.508Z,17.20
2018-10-17T09:45:19.999Z,17.20
2018-10-17T09:47:49.353Z,17.30
2018-10-17T09:50:19.840Z,17.40
2018-10-17T09:52:50.853Z,17.40
2018-10-17T09:55:20.329Z,17.50
2018-10-17T09:57:50.584Z,17.60
2018-10-17T10:00:25.380Z,17.60
2018-10-17T10:02:54.722Z,17.70
2018-10-17T10:05:24.408Z,17.70
2018-10-17T10:07:53.530Z,17.80
2018-10-17T10:10:22.843Z,17.80
2018-10-17T10:12:52.540Z,17.90
2018-10-17T10:15:21.946Z,17.90
2018-10-17T10:17:51.334Z,18.00
2018-10-17T10:20:20.851Z,18.10
2018-10-17T10:22:50.119Z,18.20
2018-10-17T10:25:19.389Z,18.30
2018-10-17T10:27:49.161Z,18.30
2018-10-17T10:30:18.755Z,18.40
2018-10-17T10:32:49.472Z,18.50
2018-10-17T10:35:18.829Z,18.60
2018-10-17T10:37:49.650Z,18.70
2018-10-17T10:40:18.813Z,18.90
2018-10-17T10:42:48.073Z,19.00
2018-10-17T10:45:17.493Z,19.10
2018-10-17T10:47:46.748Z,19.20
2018-10-17T10:50:16.489Z,19.30
2018-10-17T10:52:49.983Z,19.50
2018-10-17T10:55:19.777Z,19.50
2018-10-17T10:57:49.105Z,19.60
2018-10-17T11:00:19.020Z,19.70
2018-10-17T11:02:49.173Z,19.80
2018-10-17T11:05:18.854Z,19.80
2018-10-17T11:07:48.366Z,19.90
2018-10-17T11:10:18.879Z,20.00
2018-10-17T11:12:59.387Z,20.00
2018-10-17T11:15:28.483Z,20.10
2018-10-17T11:17:57.853Z,20.10
2018-10-17T11:20:27.680Z,20.20
2018-10-17T11:22:57.029Z,20.20
2018-10-17T11:25:27.068Z,20.20
2018-10-17T11:27:56.774Z,20.30
2018-10-17T11:30:26.071Z,20.30
2018-10-17T11:32:57.455Z,20.30
2018-10-17T11:35:27.290Z,20.30
2018-10-17T11:37:56.474Z,20.30
2018-10-17T11:40:25.801Z,20.30
2018-10-17T11:42:54.961Z,20.30
2018-10-17T11:45:25.059Z,20.30
2018-10-17T11:47:54.592Z,20.30
2018-10-17T11:50:24.213Z,20.30
2018-10-17T11:52:53.363Z,20.30
2018-10-17T11:55:22.480Z,20.30
2018-10-17T11:57:51.825Z,20.30
2018-10-17T12:00:21.011Z,20.40
2018-10-17T12:02:50.463Z,20.50
2018-10-17T12:05:19.994Z,20.50
2018-10-17T12:07:49.183Z,20.50
2018-10-17T12:10:18.450Z,20.50
2018-10-17T12:12:47.626Z,20.50
2018-10-17T12:15:17.082Z,20.50
2018-10-17T12:17:46.156Z,20.50
2018-10-17T12:20:15.795Z,20.60
2018-10-17T12:22:45.882Z,20.60
2018-10-17T12:25:15.745Z,20.60
2018-10-17T12:27:45.571Z,20.60
2018-10-17T12:30:15.535Z,20.60
2018-10-17T12:32:45.151Z,20.60
2018-10-17T12:35:14.739Z,20.70
2018-10-17T12:37:44.186Z,20.70
2018-10-17T12:40:17.078Z,20.70
2018-10-17T12:42:46.184Z,20.70
2018-10-17T12:45:15.426Z,20.80
2018-10-17T12:47:44.650Z,20.80
2018-10-17T12:50:14.855Z,20.90
2018-10-17T12:52:43.970Z,20.80
2018-10-17T12:55:13.832Z,20.90
2018-10-17T12:57:46.010Z,21.00
2018-10-17T13:00:16.088Z,21.00
2018-10-17T13:02:46.615Z,21.10
2018-10-17T13:05:16.286Z,21.10
2018-10-17T13:07:45.733Z,21.20
2018-10-17T13:10:15.100Z,21.20
2018-10-17T13:12:44.245Z,21.30
2018-10-17T13:15:14.439Z,21.30
2018-10-17T13:17:44.780Z,21.30
2018-10-17T13:20:14.220Z,21.30
2018-10-17T13:22:44.332Z,21.30
2018-10-17T13:25:13.565Z,21.30
2018-10-17T13:27:42.993Z,21.30
2018-10-17T13:30:12.223Z,21.20
2018-10-17T13:32:41.405Z,21.20
2018-10-17T13:35:10.670Z,21.20
2018-10-17T13:37:39.757Z,21.10
2018-10-17T13:40:09.392Z,21.10
2018-10-17T13:42:38.861Z,21.10
2018-10-17T13:45:08.579Z,21.10
2018-10-17T13:47:37.902Z,21.10
2018-10-17T13:50:07.521Z,21.00
2018-10-17T13:52:36.741Z,21.10
2018-10-17T13:55:06.666Z,21.10
2018-10-17T13:57:36.776Z,21.10
2018-10-17T14:00:08.128Z,21.10
2018-10-17T14:02:37.430Z,21.20
2018-10-17T14:05:07.874Z,21.20
2018-10-17T14:07:37.381Z,21.20
2018-10-17T14:10:06.881Z,21.20
2018-10-17T14:12:36.410Z,21.20
2018-10-17T14:15:06.118Z,21.20
2018-10-17T14:17:35.823Z,21.20
2018-10-17T14:20:06.168Z,21.20
2018-10-17T14:22:35.602Z,21.20
2018-10-17T14:25:05.555Z,21.10
2018-10-17T14:27:35.128Z,21.10
2018-10-17T14:30:04.843Z,21.10
2018-10-17T14:32:40.380Z,21.10
2018-10-17T14:35:11.008Z,21.10
2018-10-17T14:37:40.526Z,21.10
2018-10-17T14:42:50.440Z,21.00
2018-10-17T14:45:20.371Z,20.90
2018-10-17T14:47:49.651Z,20.90
2018-10-17T14:50:18.769Z,20.80
2018-10-17T14:52:48.667Z,20.70
2018-10-17T14:55:17.729Z,20.70
2018-10-17T14:57:46.991Z,20.60
2018-10-17T15:00:17.866Z,20.60
2018-10-17T15:02:47.523Z,20.60
2018-10-17T15:05:17.487Z,20.50
2018-10-17T15:07:46.627Z,20.40
2018-10-17T15:10:15.754Z,20.40
2018-10-17T15:12:46.311Z,20.40
2018-10-17T15:15:15.599Z,20.30
2018-10-17T15:17:45.188Z,20.30
2018-10-17T15:22:52.464Z,20.30
2018-10-17T15:25:21.707Z,20.20
2018-10-17T15:27:51.033Z,20.20
2018-10-17T15:30:20.343Z,20.20
2018-10-17T15:32:49.401Z,20.10
2018-10-17T15:35:18.574Z,20.10
2018-10-17T15:37:47.976Z,20.10
2018-10-17T15:40:18.181Z,20.00
2018-10-17T15:42:49.345Z,20.00
2018-10-17T15:45:18.508Z,19.90
2018-10-17T15:47:50.150Z,19.80
2018-10-17T15:50:19.831Z,19.80
2018-10-17T15:52:49.564Z,19.80
2018-10-17T15:55:19.236Z,19.70
2018-10-17T15:57:48.619Z,19.70
2018-10-17T16:00:17.669Z,19.70
2018-10-17T16:02:47.720Z,19.60
2018-10-17T16:05:17.368Z,19.60
2018-10-17T16:07:46.679Z,19.50
2018-10-17T16:10:16.591Z,19.50
2018-10-17T16:12:46.122Z,19.40
2018-10-17T16:15:15.403Z,19.30
2018-10-17T16:17:44.947Z,19.30
2018-10-17T16:20:14.432Z,19.20
2018-10-17T16:22:43.877Z,19.20
2018-10-17T16:25:12.908Z,19.10
2018-10-17T16:27:43.041Z,19.10
2018-10-17T16:30:12.771Z,19.00
2018-10-17T16:32:42.767Z,18.90
2018-10-17T16:35:12.002Z,18.80
2018-10-17T16:37:41.423Z,18.70
2018-10-17T16:40:10.891Z,18.70
2018-10-17T16:42:40.201Z,18.60
2018-10-17T16:45:10.342Z,18.50
2018-10-17T16:47:41.036Z,18.50
2018-10-17T16:50:10.299Z,18.50
2018-10-17T16:52:39.312Z,18.50
2018-10-17T16:55:09.103Z,18.40
2018-10-17T16:57:38.253Z,18.40
2018-10-17T17:00:12.901Z,18.40
2018-10-17T17:02:43.196Z,18.40
2018-10-17T17:05:13.928Z,18.30
2018-10-17T17:07:43.236Z,18.30
2018-10-17T17:10:13.807Z,18.20
2018-10-17T17:12:43.540Z,18.20
2018-10-17T17:15:13.300Z,18.40
2018-10-17T17:17:42.831Z,18.40
2018-10-17T17:20:14.019Z,18.60
2018-10-17T17:22:43.963Z,18.50
2018-10-17T17:25:13.339Z,18.40
2018-10-17T17:27:43.382Z,18.20
2018-10-17T17:30:19.957Z,18.10
2018-10-17T17:32:49.742Z,18.10
2018-10-17T17:37:49.639Z,17.90
2018-10-17T17:40:20.324Z,17.80
2018-10-17T17:42:50.043Z,17.70
2018-10-17T17:45:19.089Z,17.70
2018-10-17T17:47:48.386Z,17.70
2018-10-17T17:50:17.472Z,17.60
2018-10-17T17:52:46.701Z,17.60
2018-10-17T17:55:15.983Z,17.50
2018-10-17T17:57:45.201Z,17.40
2018-10-17T18:00:14.405Z,17.40
2018-10-17T18:02:43.709Z,17.30
2018-10-17T18:05:13.227Z,17.30
2018-10-17T18:07:42.484Z,17.20
2018-10-17T18:10:11.967Z,17.10
2018-10-17T18:12:42.354Z,17.00
2018-10-17T18:15:11.667Z,16.90
2018-10-17T18:17:41.074Z,16.90
2018-10-17T18:20:10.219Z,16.80
2018-10-17T18:22:39.771Z,16.70
2018-10-17T18:25:09.282Z,16.70
2018-10-17T18:27:39.220Z,16.60
2018-10-17T18:30:08.325Z,16.60
2018-10-17T18:32:37.411Z,16.60
2018-10-17T18:35:06.898Z,16.50
2018-10-17T18:37:36.147Z,16.50
2018-10-17T18:40:05.641Z,16.50
2018-10-17T18:42:37.622Z,16.40
2018-10-17T18:45:06.842Z,16.40
2018-10-17T18:47:37.058Z,16.40
2018-10-17T18:50:07.152Z,16.30
2018-10-17T18:52:36.394Z,16.30
2018-10-17T18:55:06.685Z,16.20
2018-10-17T18:57:36.632Z,16.20
2018-10-17T19:00:09.593Z,16.10
2018-10-17T19:02:41.663Z,16.00
2018-10-17T19:05:11.025Z,16.00
2018-10-17T19:07:40.217Z,15.90
2018-10-17T19:10:09.432Z,15.80
2018-10-17T19:12:38.728Z,15.80
2018-10-17T19:15:08.050Z,15.70
2018-10-17T19:17:37.370Z,15.70
2018-10-17T19:23:00.094Z,15.60
2018-10-17T19:25:29.274Z,15.50
2018-10-17T19:27:58.454Z,15.50
2018-10-17T19:30:27.447Z,15.40
2018-10-17T19:32:56.648Z,15.30
2018-10-17T19:35:25.807Z,15.30
2018-10-17T19:37:55.025Z,15.20
2018-10-17T19:40:24.249Z,15.20
2018-10-17T19:42:53.424Z,15.20
2018-10-17T19:45:22.653Z,15.10
2018-10-17T19:47:52.092Z,15.10
2018-10-17T19:50:21.184Z,15.00
2018-10-17T19:52:50.484Z,15.00
2018-10-17T19:55:19.600Z,14.90
2018-10-17T19:57:48.781Z,14.90
2018-10-17T20:00:17.964Z,14.80
2018-10-17T20:02:47.114Z,14.80
2018-10-17T20:05:16.372Z,14.70
2018-10-17T20:07:45.572Z,14.70
2018-10-17T20:10:14.634Z,14.60
2018-10-17T20:12:43.811Z,14.50
2018-10-17T20:15:16.108Z,14.50
2018-10-17T20:17:45.415Z,14.50
2018-10-17T20:20:14.798Z,14.40
2018-10-17T20:22:43.953Z,14.40
2018-10-17T20:25:13.959Z,14.40
2018-10-17T20:27:43.097Z,14.30
2018-10-17T20:30:12.475Z,14.30
2018-10-17T20:32:41.579Z,14.30
2018-10-17T20:35:11.175Z,14.30
2018-10-17T20:37:40.560Z,14.30
2018-10-17T20:40:09.638Z,14.20
2018-10-17T20:42:38.730Z,14.20
2018-10-17T20:45:08.090Z,14.20
2018-10-17T20:47:37.271Z,14.10
2018-10-17T20:50:08.476Z,14.10
2018-10-17T20:52:37.823Z,14.00
2018-10-17T20:55:07.143Z,14.00
2018-10-17T20:57:37.609Z,13.90
2018-10-17T21:00:07.597Z,13.90
2018-10-17T21:02:37.369Z,13.90
2018-10-17T21:05:07.616Z,13.80
2018-10-17T21:07:36.865Z,13.70
2018-10-17T21:10:06.908Z,13.70
2018-10-17T21:12:36.070Z,13.70
2018-10-17T21:15:06.517Z,13.60
2018-10-17T21:17:35.749Z,13.50
2018-10-17T21:20:05.036Z,13.50
2018-10-17T21:22:34.169Z,13.50
2018-10-17T21:25:03.322Z,13.50
2018-10-17T21:27:32.428Z,13.40
2018-10-17T21:30:01.793Z,13.40
2018-10-17T21:32:30.992Z,13.40
2018-10-17T21:35:00.125Z,13.40
2018-10-17T21:37:29.320Z,13.30
2018-10-17T21:39:58.471Z,13.30
2018-10-17T21:42:27.464Z,13.30
2018-10-17T21:44:56.815Z,13.30
2018-10-17T21:47:27.996Z,13.30
2018-10-17T21:49:57.049Z,13.30
2018-10-17T21:52:26.192Z,13.30
2018-10-17T21:54:55.292Z,13.30
2018-10-17T21:57:24.409Z,13.30
2018-10-17T21:59:54.324Z,13.30
2018-10-17T22:02:23.368Z,13.30
2018-10-17T22:04:54.035Z,13.30
2018-10-17T22:07:23.363Z,13.30
2018-10-17T22:09:52.792Z,13.30
2018-10-17T22:12:21.855Z,13.30
2018-10-17T22:14:51.019Z,13.30
2018-10-17T22:17:25.622Z,13.40
2018-10-17T22:19:54.952Z,13.40
2018-10-17T22:22:24.322Z,13.40
2018-10-17T22:24:54.265Z,13.40
2018-10-17T22:27:23.485Z,13.40
2018-10-17T22:29:52.963Z,13.40
2018-10-17T22:32:22.093Z,13.40
2018-10-17T22:34:51.383Z,13.50
2018-10-17T22:37:20.507Z,13.50
2018-10-17T22:39:49.536Z,13.50
2018-10-17T22:42:18.729Z,13.50
2018-10-17T22:44:47.787Z,13.60
2018-10-17T22:47:16.956Z,13.60
2018-10-17T22:49:46.084Z,13.60
2018-10-17T22:52:15.496Z,13.60
2018-10-17T22:54:44.632Z,13.50
2018-10-17T22:57:14.127Z,13.50
2018-10-17T22:59:43.317Z,13.50
2018-10-17T23:02:12.515Z,13.50
2018-10-17T23:04:41.933Z,13.50
2018-10-17T23:07:12.935Z,13.50
2018-10-17T23:09:42.171Z,13.50
2018-10-17T23:12:11.365Z,13.50
2018-10-17T23:14:40.773Z,13.50
2018-10-17T23:17:09.972Z,13.50
2018-10-17T23:19:39.090Z,13.50
2018-10-17T23:22:08.166Z,13.60
2018-10-17T23:24:37.310Z,13.60
2018-10-17T23:27:06.621Z,13.60
2018-10-17T23:29:35.804Z,13.60
2018-10-17T23:32:05.414Z,13.60
2018-10-17T23:34:34.743Z,13.60
2018-10-17T23:37:04.904Z,13.60
2018-10-17T23:39:34.012Z,13.60
2018-10-17T23:42:03.193Z,13.70
2018-10-17T23:44:32.913Z,13.70
2018-10-17T23:47:02.103Z,13.70
2018-10-17T23:49:31.172Z,13.60
2018-10-17T23:52:00.869Z,13.60
2018-10-17T23:54:30.043Z,13.70
2018-10-17T23:56:59.112Z,13.70
2018-10-17T23:59:28.257Z,13.80
